This is the latest recevied weather packets stored in our database for station/object N2WH. If no packets are shown the sender has not sent any weather packets the latest 10 day(s).
| Time | Temp. | Humidity | Pressure | Rain* | Wind** | Luminosity | Snow |
|---|---|---|---|---|---|---|---|
| 1777897335 | 12.22° C | 48% | 1014.7 hPa | 0 mm | - | 195 W/m² | - |
| 1777897031 | 11.67° C | 51% | 1014.6 hPa | 0 mm | - | 208 W/m² | - |
| 1777896728 | 11.67° C | 52% | 1014.7 hPa | 0 mm | - | 196 W/m² | - |
| 1777896425 | 11.11° C | 54% | 1014.7 hPa | 0 mm | - | 165 W/m² | - |
| 1777896122 | 10.56° C | 54% | 1014.7 hPa | 0 mm | - | 66 W/m² | - |
| 1777895820 | 10.56° C | 56% | 1014.8 hPa | 0 mm | - | 85 W/m² | - |
| 1777895517 | 10° C | 57% | 1014.7 hPa | 0 mm | - | 62 W/m² | - |
| 1777895215 | 10° C | 58% | 1014.9 hPa | 0 mm | - | 49 W/m² | - |
| 1777894912 | 10° C | 58% | 1014.8 hPa | 0 mm | - | 40 W/m² | - |
| 1777894609 | 9.44° C | 59% | 1014.9 hPa | 0 mm | - | 46 W/m² | - |
| 1777894306 | 9.44° C | 58% | 1015 hPa | 0 mm | - | 44 W/m² | - |
| 1777894003 | 8.89° C | 60% | 1014.8 hPa | 0 mm | - | 46 W/m² | - |
| 1777893700 | 8.89° C | 61% | 1014.9 hPa | 0 mm | - | 39 W/m² | - |
| 1777893396 | 8.89° C | 59% | 1014.7 hPa | 0 mm | - | 33 W/m² | - |
| 1777893092 | 8.89° C | 59% | 1014.6 hPa | 0 mm | - | 31 W/m² | - |
| 1777892789 | 8.89° C | 59% | 1014.6 hPa | 0 mm | - | 31 W/m² | - |
| 1777892485 | 8.89° C | 60% | 1014.8 hPa | 0 mm | - | 27 W/m² | - |
| 1777892181 | 8.89° C | 59% | 1014.7 hPa | 0 mm | - | 30 W/m² | - |
| 1777891878 | 7.78° C | 63% | 1014.4 hPa | 0 mm | - | 30 W/m² | - |
| 1777891576 | 7.22° C | 64% | 1014.7 hPa | 0 mm | - | 26 W/m² | - |
| 1777891272 | 7.22° C | 64% | 1014.8 hPa | 0 mm | - | 21 W/m² | - |
| 1777890972 | 6.67° C | 65% | 1014.7 hPa | 0 mm | - | 18 W/m² | - |
| 1777890667 | 6.67° C | 66% | 1014.6 hPa | 0 mm | - | 16 W/m² | - |
| 1777890363 | 6.67° C | 65% | 1014.6 hPa | 0 mm | - | 13 W/m² | - |
| 1777890059 | 6.11° C | 67% | 1014.6 hPa | 0 mm | - | 10 W/m² | - |
* Rain latest hour (hover to see other rain measurements)
** Current wind speed in m/s (hover to see current wind gust speed)